Terminal Aerodrome Forecast
Issued by NWS Jacksonville, FL

Home | Current Version | Previous Version | Text Only | Print | Product List | Glossary On
Versions: 1 2 3 4 5 6 7 8 9 10 11 12 13 14 15 16 17
000
FTUS42 KJAX 111139
TAFSSI
TAF
KSSI 111139Z 1112/1212 36008KT P6SM VCSH SCT025 BKN035
     FM111500 09010KT P6SM VCSH SCT025 BKN040
     FM111900 09009KT P6SM SCT030 BKN050
     FM120400 16004KT P6SM VCSH SCT005 OVC010=

USA.gov is the U.S. government's official web portal to all federal, state and local government web resources and services.